sensor_id;sensor_type;location;lat;lon;timestamp;P1;durP1;ratioP1;P2;durP2;ratioP2
40314;SDS011;26021;45.640;11.302;2024-03-08T00:00:40;18.35;;;14.20;;
40314;SDS011;26021;45.640;11.302;2024-03-08T00:03:07;19.33;;;14.25;;
40314;SDS011;26021;45.640;11.302;2024-03-08T00:05:35;18.23;;;14.60;;
40314;SDS011;26021;45.640;11.302;2024-03-08T00:08:01;17.02;;;13.27;;
40314;SDS011;26021;45.640;11.302;2024-03-08T00:10:26;20.02;;;14.60;;
40314;SDS011;26021;45.640;11.302;2024-03-08T00:12:53;18.25;;;14.75;;
40314;SDS011;26021;45.640;11.302;2024-03-08T00:15:19;19.58;;;15.55;;
40314;SDS011;26021;45.640;11.302;2024-03-08T00:17:45;20.23;;;15.20;;
40314;SDS011;26021;45.640;11.302;2024-03-08T00:20:11;20.27;;;14.75;;
40314;SDS011;26021;45.640;11.302;2024-03-08T00:22:38;22.00;;;15.63;;
40314;SDS011;26021;45.640;11.302;2024-03-08T00:25:04;20.75;;;15.68;;
40314;SDS011;26021;45.640;11.302;2024-03-08T00:27:30;21.67;;;15.80;;
40314;SDS011;26021;45.640;11.302;2024-03-08T00:29:57;20.75;;;15.90;;
40314;SDS011;26021;45.640;11.302;2024-03-08T00:32:22;20.48;;;15.57;;
40314;SDS011;26021;45.640;11.302;2024-03-08T00:34:52;22.67;;;15.38;;
40314;SDS011;26021;45.640;11.302;2024-03-08T00:37:19;21.98;;;14.85;;
40314;SDS011;26021;45.640;11.302;2024-03-08T00:39:45;22.20;;;15.82;;
40314;SDS011;26021;45.640;11.302;2024-03-08T00:42:10;19.58;;;15.18;;
40314;SDS011;26021;45.640;11.302;2024-03-08T00:44:35;22.73;;;14.60;;
40314;SDS011;26021;45.640;11.302;2024-03-08T00:47:01;22.45;;;16.38;;
40314;SDS011;26021;45.640;11.302;2024-03-08T00:49:27;20.75;;;15.63;;
40314;SDS011;26021;45.640;11.302;2024-03-08T00:51:52;20.15;;;15.50;;
40314;SDS011;26021;45.640;11.302;2024-03-08T00:54:18;22.60;;;15.73;;
40314;SDS011;26021;45.640;11.302;2024-03-08T00:56:43;21.50;;;16.05;;
40314;SDS011;26021;45.640;11.302;2024-03-08T00:59:11;21.70;;;15.10;;
40314;SDS011;26021;45.640;11.302;2024-03-08T01:01:36;19.42;;;15.07;;
40314;SDS011;26021;45.640;11.302;2024-03-08T01:04:11;20.13;;;15.52;;
40314;SDS011;26021;45.640;11.302;2024-03-08T01:06:36;19.48;;;15.50;;
40314;SDS011;26021;45.640;11.302;2024-03-08T01:09:02;23.05;;;15.85;;
40314;SDS011;26021;45.640;11.302;2024-03-08T01:11:28;20.55;;;15.90;;
40314;SDS011;26021;45.640;11.302;2024-03-08T01:13:53;21.45;;;15.80;;
40314;SDS011;26021;45.640;11.302;2024-03-08T01:16:19;18.50;;;14.85;;
40314;SDS011;26021;45.640;11.302;2024-03-08T01:18:46;18.65;;;14.18;;
40314;SDS011;26021;45.640;11.302;2024-03-08T01:21:12;17.13;;;12.98;;
40314;SDS011;26021;45.640;11.302;2024-03-08T01:23:38;18.38;;;13.60;;
40314;SDS011;26021;45.640;11.302;2024-03-08T01:26:03;17.27;;;13.15;;
40314;SDS011;26021;45.640;11.302;2024-03-08T01:28:29;18.55;;;13.70;;
40314;SDS011;26021;45.640;11.302;2024-03-08T01:30:55;17.02;;;12.68;;
40314;SDS011;26021;45.640;11.302;2024-03-08T01:33:24;18.02;;;13.00;;
40314;SDS011;26021;45.640;11.302;2024-03-08T01:35:51;17.27;;;12.65;;
40314;SDS011;26021;45.640;11.302;2024-03-08T01:38:17;17.20;;;12.93;;
40314;SDS011;26021;45.640;11.302;2024-03-08T01:40:43;15.57;;;12.50;;
40314;SDS011;26021;45.640;11.302;2024-03-08T01:45:57;15.20;;;11.07;;
40314;SDS011;26021;45.640;11.302;2024-03-08T01:48:27;13.43;;;10.05;;
40314;SDS011;26021;45.640;11.302;2024-03-08T01:50:54;15.10;;;10.02;;
40314;SDS011;26021;45.640;11.302;2024-03-08T01:53:21;15.05;;;10.70;;
40314;SDS011;26021;45.640;11.302;2024-03-08T01:55:48;13.02;;;10.50;;
40314;SDS011;26021;45.640;11.302;2024-03-08T01:58:14;14.77;;;11.07;;
40314;SDS011;26021;45.640;11.302;2024-03-08T02:00:46;17.02;;;12.50;;
40314;SDS011;26021;45.640;11.302;2024-03-08T02:03:18;18.58;;;11.95;;
40314;SDS011;26021;45.640;11.302;2024-03-08T02:05:44;15.45;;;11.48;;
40314;SDS011;26021;45.640;11.302;2024-03-08T02:08:09;18.00;;;12.25;;
40314;SDS011;26021;45.640;11.302;2024-03-08T02:10:45;17.65;;;12.82;;
40314;SDS011;26021;45.640;11.302;2024-03-08T02:13:11;15.77;;;11.25;;
40314;SDS011;26021;45.640;11.302;2024-03-08T02:15:56;17.08;;;11.95;;
40314;SDS011;26021;45.640;11.302;2024-03-08T02:18:26;15.82;;;11.15;;
40314;SDS011;26021;45.640;11.302;2024-03-08T02:20:56;14.57;;;11.25;;
40314;SDS011;26021;45.640;11.302;2024-03-08T02:23:22;16.98;;;11.57;;
40314;SDS011;26021;45.640;11.302;2024-03-08T02:25:50;17.10;;;11.00;;
40314;SDS011;26021;45.640;11.302;2024-03-08T02:28:16;16.13;;;10.90;;
40314;SDS011;26021;45.640;11.302;2024-03-08T02:30:43;13.73;;;10.43;;
40314;SDS011;26021;45.640;11.302;2024-03-08T02:33:09;14.55;;;10.15;;
40314;SDS011;26021;45.640;11.302;2024-03-08T02:35:35;18.48;;;12.23;;
40314;SDS011;26021;45.640;11.302;2024-03-08T02:38:01;16.00;;;11.57;;
40314;SDS011;26021;45.640;11.302;2024-03-08T02:40:28;16.02;;;11.15;;
40314;SDS011;26021;45.640;11.302;2024-03-08T02:42:54;13.27;;;9.40;;
40314;SDS011;26021;45.640;11.302;2024-03-08T02:45:19;13.90;;;10.30;;
40314;SDS011;26021;45.640;11.302;2024-03-08T02:47:45;14.68;;;10.73;;
40314;SDS011;26021;45.640;11.302;2024-03-08T02:50:11;16.00;;;10.85;;
40314;SDS011;26021;45.640;11.302;2024-03-08T02:52:37;14.77;;;10.85;;
40314;SDS011;26021;45.640;11.302;2024-03-08T02:55:02;14.43;;;10.15;;
40314;SDS011;26021;45.640;11.302;2024-03-08T02:57:28;15.07;;;11.80;;
40314;SDS011;26021;45.640;11.302;2024-03-08T02:59:53;14.93;;;12.30;;
40314;SDS011;26021;45.640;11.302;2024-03-08T03:02:19;15.13;;;11.45;;
40314;SDS011;26021;45.640;11.302;2024-03-08T03:04:45;17.17;;;12.07;;
40314;SDS011;26021;45.640;11.302;2024-03-08T03:07:10;16.40;;;12.02;;
40314;SDS011;26021;45.640;11.302;2024-03-08T03:09:36;16.63;;;12.30;;
40314;SDS011;26021;45.640;11.302;2024-03-08T03:12:02;16.55;;;11.25;;
40314;SDS011;26021;45.640;11.302;2024-03-08T03:14:27;16.30;;;11.10;;
40314;SDS011;26021;45.640;11.302;2024-03-08T03:16:53;15.57;;;11.25;;
40314;SDS011;26021;45.640;11.302;2024-03-08T03:19:19;15.27;;;11.13;;
40314;SDS011;26021;45.640;11.302;2024-03-08T03:21:45;15.65;;;10.35;;
40314;SDS011;26021;45.640;11.302;2024-03-08T03:24:11;14.13;;;10.73;;
40314;SDS011;26021;45.640;11.302;2024-03-08T03:26:37;14.95;;;10.80;;
40314;SDS011;26021;45.640;11.302;2024-03-08T03:29:05;14.00;;;10.07;;
40314;SDS011;26021;45.640;11.302;2024-03-08T03:31:31;15.23;;;11.23;;
40314;SDS011;26021;45.640;11.302;2024-03-08T03:33:57;16.83;;;11.38;;
40314;SDS011;26021;45.640;11.302;2024-03-08T03:36:27;20.70;;;11.75;;
40314;SDS011;26021;45.640;11.302;2024-03-08T03:38:56;14.95;;;11.18;;
40314;SDS011;26021;45.640;11.302;2024-03-08T03:41:31;15.52;;;10.93;;
40314;SDS011;26021;45.640;11.302;2024-03-08T03:43:57;14.93;;;10.20;;
40314;SDS011;26021;45.640;11.302;2024-03-08T03:46:22;13.63;;;10.90;;
40314;SDS011;26021;45.640;11.302;2024-03-08T03:48:48;14.60;;;10.10;;
40314;SDS011;26021;45.640;11.302;2024-03-08T03:51:13;14.80;;;10.82;;
40314;SDS011;26021;45.640;11.302;2024-03-08T03:53:40;15.38;;;11.30;;
40314;SDS011;26021;45.640;11.302;2024-03-08T03:56:06;17.17;;;11.57;;
40314;SDS011;26021;45.640;11.302;2024-03-08T03:58:32;16.55;;;11.43;;
40314;SDS011;26021;45.640;11.302;2024-03-08T04:00:58;14.90;;;10.85;;
40314;SDS011;26021;45.640;11.302;2024-03-08T04:03:23;18.92;;;12.05;;
40314;SDS011;26021;45.640;11.302;2024-03-08T04:05:49;14.20;;;10.15;;
40314;SDS011;26021;45.640;11.302;2024-03-08T04:08:14;13.15;;;10.60;;
40314;SDS011;26021;45.640;11.302;2024-03-08T04:10:40;10.85;;;8.70;;
40314;SDS011;26021;45.640;11.302;2024-03-08T04:13:08;12.82;;;9.88;;
40314;SDS011;26021;45.640;11.302;2024-03-08T04:15:36;12.55;;;10.07;;
40314;SDS011;26021;45.640;11.302;2024-03-08T04:18:03;14.85;;;10.75;;
40314;SDS011;26021;45.640;11.302;2024-03-08T04:20:28;13.35;;;10.20;;
40314;SDS011;26021;45.640;11.302;2024-03-08T04:22:55;10.60;;;8.88;;
40314;SDS011;26021;45.640;11.302;2024-03-08T04:25:21;12.35;;;9.30;;
40314;SDS011;26021;45.640;11.302;2024-03-08T04:27:46;12.45;;;9.63;;
40314;SDS011;26021;45.640;11.302;2024-03-08T04:30:13;13.77;;;10.60;;
40314;SDS011;26021;45.640;11.302;2024-03-08T04:32:39;12.10;;;9.63;;
40314;SDS011;26021;45.640;11.302;2024-03-08T04:35:06;13.15;;;10.07;;
40314;SDS011;26021;45.640;11.302;2024-03-08T04:37:33;14.50;;;10.30;;
40314;SDS011;26021;45.640;11.302;2024-03-08T04:39:59;12.63;;;10.20;;
40314;SDS011;26021;45.640;11.302;2024-03-08T04:42:24;13.43;;;10.73;;
40314;SDS011;26021;45.640;11.302;2024-03-08T04:45:00;16.23;;;10.98;;
40314;SDS011;26021;45.640;11.302;2024-03-08T04:47:27;13.23;;;10.40;;
40314;SDS011;26021;45.640;11.302;2024-03-08T04:49:52;13.57;;;10.50;;
40314;SDS011;26021;45.640;11.302;2024-03-08T04:52:19;13.32;;;10.38;;
40314;SDS011;26021;45.640;11.302;2024-03-08T04:54:44;11.07;;;9.50;;
40314;SDS011;26021;45.640;11.302;2024-03-08T04:57:10;12.48;;;9.88;;
40314;SDS011;26021;45.640;11.302;2024-03-08T04:59:36;13.60;;;10.77;;
40314;SDS011;26021;45.640;11.302;2024-03-08T05:02:01;12.50;;;10.38;;
40314;SDS011;26021;45.640;11.302;2024-03-08T05:04:27;12.80;;;10.50;;
40314;SDS011;26021;45.640;11.302;2024-03-08T05:06:54;13.63;;;10.30;;
40314;SDS011;26021;45.640;11.302;2024-03-08T05:09:19;12.15;;;9.75;;
40314;SDS011;26021;45.640;11.302;2024-03-08T05:11:45;12.27;;;10.20;;
40314;SDS011;26021;45.640;11.302;2024-03-08T05:14:12;13.45;;;10.63;;
40314;SDS011;26021;45.640;11.302;2024-03-08T05:16:44;12.40;;;10.23;;
40314;SDS011;26021;45.640;11.302;2024-03-08T05:19:16;12.65;;;10.18;;
40314;SDS011;26021;45.640;11.302;2024-03-08T05:21:45;13.07;;;10.07;;
40314;SDS011;26021;45.640;11.302;2024-03-08T05:24:11;17.35;;;12.07;;
40314;SDS011;26021;45.640;11.302;2024-03-08T05:26:38;14.40;;;11.02;;
40314;SDS011;26021;45.640;11.302;2024-03-08T05:29:04;14.88;;;11.50;;
40314;SDS011;26021;45.640;11.302;2024-03-08T05:31:30;16.55;;;12.77;;
40314;SDS011;26021;45.640;11.302;2024-03-08T05:34:01;17.05;;;11.90;;
40314;SDS011;26021;45.640;11.302;2024-03-08T05:36:26;14.93;;;11.30;;
40314;SDS011;26021;45.640;11.302;2024-03-08T05:38:52;13.80;;;10.43;;
40314;SDS011;26021;45.640;11.302;2024-03-08T05:41:17;11.57;;;9.23;;
40314;SDS011;26021;45.640;11.302;2024-03-08T05:43:43;8.95;;;7.47;;
40314;SDS011;26021;45.640;11.302;2024-03-08T05:46:09;8.45;;;6.90;;
40314;SDS011;26021;45.640;11.302;2024-03-08T05:48:36;10.60;;;7.07;;
40314;SDS011;26021;45.640;11.302;2024-03-08T05:51:02;10.80;;;8.10;;
40314;SDS011;26021;45.640;11.302;2024-03-08T05:53:28;11.07;;;9.18;;
40314;SDS011;26021;45.640;11.302;2024-03-08T05:55:57;9.57;;;8.15;;
40314;SDS011;26021;45.640;11.302;2024-03-08T05:58:23;10.43;;;8.07;;
40314;SDS011;26021;45.640;11.302;2024-03-08T06:00:49;10.63;;;8.60;;
40314;SDS011;26021;45.640;11.302;2024-03-08T06:03:15;10.90;;;7.50;;
40314;SDS011;26021;45.640;11.302;2024-03-08T06:05:40;11.60;;;7.82;;
40314;SDS011;26021;45.640;11.302;2024-03-08T06:08:07;11.07;;;7.90;;
40314;SDS011;26021;45.640;11.302;2024-03-08T06:10:33;11.35;;;7.75;;
40314;SDS011;26021;45.640;11.302;2024-03-08T06:12:58;11.05;;;9.10;;
40314;SDS011;26021;45.640;11.302;2024-03-08T06:15:25;10.10;;;9.00;;
40314;SDS011;26021;45.640;11.302;2024-03-08T06:17:50;10.50;;;8.13;;
40314;SDS011;26021;45.640;11.302;2024-03-08T06:20:17;9.77;;;8.13;;
40314;SDS011;26021;45.640;11.302;2024-03-08T06:22:43;11.50;;;9.60;;
40314;SDS011;26021;45.640;11.302;2024-03-08T06:25:10;10.98;;;8.60;;
40314;SDS011;26021;45.640;11.302;2024-03-08T06:27:40;8.18;;;7.32;;
40314;SDS011;26021;45.640;11.302;2024-03-08T06:30:07;13.63;;;9.40;;
40314;SDS011;26021;45.640;11.302;2024-03-08T06:32:34;11.35;;;8.82;;
40314;SDS011;26021;45.640;11.302;2024-03-08T06:35:01;10.77;;;8.55;;
40314;SDS011;26021;45.640;11.302;2024-03-08T06:37:27;10.30;;;8.68;;
40314;SDS011;26021;45.640;11.302;2024-03-08T06:39:53;12.48;;;8.52;;
40314;SDS011;26021;45.640;11.302;2024-03-08T06:42:20;10.70;;;8.82;;
40314;SDS011;26021;45.640;11.302;2024-03-08T06:44:45;11.27;;;8.75;;
40314;SDS011;26021;45.640;11.302;2024-03-08T06:47:15;25.90;;;16.00;;
40314;SDS011;26021;45.640;11.302;2024-03-08T06:49:42;10.65;;;8.02;;
40314;SDS011;26021;45.640;11.302;2024-03-08T06:52:08;9.10;;;8.13;;
40314;SDS011;26021;45.640;11.302;2024-03-08T06:54:35;10.18;;;7.90;;
40314;SDS011;26021;45.640;11.302;2024-03-08T06:57:04;10.63;;;7.90;;
40314;SDS011;26021;45.640;11.302;2024-03-08T06:59:30;13.32;;;9.30;;
40314;SDS011;26021;45.640;11.302;2024-03-08T07:02:00;12.93;;;9.63;;
40314;SDS011;26021;45.640;11.302;2024-03-08T07:04:26;10.88;;;8.68;;
40314;SDS011;26021;45.640;11.302;2024-03-08T07:06:55;11.02;;;9.35;;
40314;SDS011;26021;45.640;11.302;2024-03-08T07:09:22;10.27;;;9.13;;
40314;SDS011;26021;45.640;11.302;2024-03-08T07:11:48;12.02;;;9.80;;
40314;SDS011;26021;45.640;11.302;2024-03-08T07:14:20;9.90;;;8.38;;
40314;SDS011;26021;45.640;11.302;2024-03-08T07:16:48;14.30;;;8.90;;
40314;SDS011;26021;45.640;11.302;2024-03-08T07:19:14;10.60;;;8.73;;
40314;SDS011;26021;45.640;11.302;2024-03-08T07:21:44;9.60;;;7.53;;
40314;SDS011;26021;45.640;11.302;2024-03-08T07:24:10;9.55;;;8.32;;
40314;SDS011;26021;45.640;11.302;2024-03-08T07:26:41;11.70;;;9.18;;
40314;SDS011;26021;45.640;11.302;2024-03-08T07:29:07;12.18;;;9.05;;
40314;SDS011;26021;45.640;11.302;2024-03-08T07:31:33;11.60;;;8.93;;
40314;SDS011;26021;45.640;11.302;2024-03-08T07:36:35;9.40;;;7.80;;
40314;SDS011;26021;45.640;11.302;2024-03-08T07:39:01;10.25;;;8.70;;
40314;SDS011;26021;45.640;11.302;2024-03-08T07:41:26;16.13;;;11.63;;
40314;SDS011;26021;45.640;11.302;2024-03-08T07:43:52;13.93;;;10.15;;
40314;SDS011;26021;45.640;11.302;2024-03-08T07:46:18;10.55;;;8.07;;
40314;SDS011;26021;45.640;11.302;2024-03-08T07:48:46;8.60;;;7.15;;
40314;SDS011;26021;45.640;11.302;2024-03-08T07:51:11;10.38;;;8.48;;
40314;SDS011;26021;45.640;11.302;2024-03-08T07:53:37;16.73;;;10.45;;
40314;SDS011;26021;45.640;11.302;2024-03-08T07:56:03;9.25;;;7.90;;
40314;SDS011;26021;45.640;11.302;2024-03-08T07:58:34;9.13;;;7.50;;
40314;SDS011;26021;45.640;11.302;2024-03-08T08:00:59;9.93;;;7.68;;
40314;SDS011;26021;45.640;11.302;2024-03-08T08:03:24;11.52;;;7.78;;
40314;SDS011;26021;45.640;11.302;2024-03-08T08:05:52;8.80;;;7.00;;
40314;SDS011;26021;45.640;11.302;2024-03-08T08:08:18;11.07;;;7.53;;
40314;SDS011;26021;45.640;11.302;2024-03-08T08:10:44;9.55;;;7.25;;
40314;SDS011;26021;45.640;11.302;2024-03-08T08:13:09;10.02;;;7.00;;
40314;SDS011;26021;45.640;11.302;2024-03-08T08:15:35;8.40;;;6.97;;
40314;SDS011;26021;45.640;11.302;2024-03-08T08:18:00;8.48;;;6.93;;
40314;SDS011;26021;45.640;11.302;2024-03-08T08:20:27;8.98;;;7.97;;
40314;SDS011;26021;45.640;11.302;2024-03-08T08:22:54;10.23;;;8.10;;
40314;SDS011;26021;45.640;11.302;2024-03-08T08:25:20;9.70;;;7.50;;
40314;SDS011;26021;45.640;11.302;2024-03-08T08:27:46;7.93;;;6.90;;
40314;SDS011;26021;45.640;11.302;2024-03-08T08:30:12;10.32;;;5.95;;
40314;SDS011;26021;45.640;11.302;2024-03-08T08:32:37;9.10;;;6.85;;
40314;SDS011;26021;45.640;11.302;2024-03-08T08:35:07;7.47;;;6.50;;
40314;SDS011;26021;45.640;11.302;2024-03-08T08:37:38;8.90;;;7.18;;
40314;SDS011;26021;45.640;11.302;2024-03-08T08:40:04;14.60;;;9.65;;
40314;SDS011;26021;45.640;11.302;2024-03-08T08:42:39;9.45;;;8.25;;
40314;SDS011;26021;45.640;11.302;2024-03-08T08:45:05;10.77;;;7.47;;
40314;SDS011;26021;45.640;11.302;2024-03-08T08:47:35;7.15;;;6.20;;
40314;SDS011;26021;45.640;11.302;2024-03-08T08:50:01;10.38;;;6.78;;
40314;SDS011;26021;45.640;11.302;2024-03-08T08:52:26;7.68;;;6.70;;
40314;SDS011;26021;45.640;11.302;2024-03-08T08:54:54;8.73;;;7.60;;
40314;SDS011;26021;45.640;11.302;2024-03-08T08:57:26;13.35;;;6.88;;
40314;SDS011;26021;45.640;11.302;2024-03-08T08:59:53;9.10;;;7.22;;
40314;SDS011;26021;45.640;11.302;2024-03-08T09:02:18;8.13;;;7.10;;
40314;SDS011;26021;45.640;11.302;2024-03-08T09:04:45;10.35;;;7.50;;
40314;SDS011;26021;45.640;11.302;2024-03-08T09:07:12;9.55;;;7.85;;
40314;SDS011;26021;45.640;11.302;2024-03-08T09:09:38;9.45;;;7.80;;
40314;SDS011;26021;45.640;11.302;2024-03-08T09:12:04;8.93;;;7.25;;
40314;SDS011;26021;45.640;11.302;2024-03-08T09:14:29;9.77;;;7.28;;
40314;SDS011;26021;45.640;11.302;2024-03-08T09:16:55;11.45;;;8.23;;
40314;SDS011;26021;45.640;11.302;2024-03-08T09:19:20;9.95;;;7.70;;
40314;SDS011;26021;45.640;11.302;2024-03-08T09:21:48;11.77;;;7.90;;
40314;SDS011;26021;45.640;11.302;2024-03-08T09:24:13;9.07;;;7.35;;
40314;SDS011;26021;45.640;11.302;2024-03-08T09:26:39;9.18;;;8.05;;
40314;SDS011;26021;45.640;11.302;2024-03-08T09:29:07;10.40;;;8.35;;
40314;SDS011;26021;45.640;11.302;2024-03-08T09:31:32;9.93;;;8.70;;
40314;SDS011;26021;45.640;11.302;2024-03-08T09:33:58;8.18;;;7.07;;
40314;SDS011;26021;45.640;11.302;2024-03-08T09:36:23;9.38;;;7.43;;
40314;SDS011;26021;45.640;11.302;2024-03-08T09:38:50;9.57;;;6.97;;
40314;SDS011;26021;45.640;11.302;2024-03-08T09:41:15;9.95;;;7.25;;
40314;SDS011;26021;45.640;11.302;2024-03-08T09:43:41;9.90;;;7.50;;
40314;SDS011;26021;45.640;11.302;2024-03-08T09:46:07;9.38;;;7.38;;
40314;SDS011;26021;45.640;11.302;2024-03-08T09:48:32;8.70;;;6.60;;
40314;SDS011;26021;45.640;11.302;2024-03-08T09:50:59;9.13;;;7.40;;
40314;SDS011;26021;45.640;11.302;2024-03-08T09:53:25;10.60;;;8.32;;
40314;SDS011;26021;45.640;11.302;2024-03-08T09:55:51;8.68;;;7.75;;
40314;SDS011;26021;45.640;11.302;2024-03-08T09:58:17;9.30;;;7.82;;
40314;SDS011;26021;45.640;11.302;2024-03-08T10:00:57;11.80;;;7.80;;
40314;SDS011;26021;45.640;11.302;2024-03-08T10:03:23;9.40;;;7.45;;
40314;SDS011;26021;45.640;11.302;2024-03-08T10:05:51;9.05;;;6.78;;
40314;SDS011;26021;45.640;11.302;2024-03-08T10:08:16;8.85;;;7.57;;
40314;SDS011;26021;45.640;11.302;2024-03-08T10:10:42;8.00;;;7.00;;
40314;SDS011;26021;45.640;11.302;2024-03-08T10:13:08;9.30;;;7.57;;
40314;SDS011;26021;45.640;11.302;2024-03-08T10:15:39;9.80;;;7.95;;
40314;SDS011;26021;45.640;11.302;2024-03-08T10:18:05;9.45;;;7.78;;
40314;SDS011;26021;45.640;11.302;2024-03-08T10:20:31;8.60;;;6.90;;
40314;SDS011;26021;45.640;11.302;2024-03-08T10:23:00;8.90;;;7.13;;
40314;SDS011;26021;45.640;11.302;2024-03-08T10:25:28;10.05;;;7.15;;
40314;SDS011;26021;45.640;11.302;2024-03-08T10:27:55;9.55;;;8.00;;
40314;SDS011;26021;45.640;11.302;2024-03-08T10:30:21;11.10;;;7.50;;
40314;SDS011;26021;45.640;11.302;2024-03-08T10:32:48;11.55;;;8.73;;
40314;SDS011;26021;45.640;11.302;2024-03-08T10:35:13;9.55;;;7.85;;
40314;SDS011;26021;45.640;11.302;2024-03-08T10:37:47;10.65;;;8.43;;
40314;SDS011;26021;45.640;11.302;2024-03-08T10:40:18;10.82;;;7.80;;
40314;SDS011;26021;45.640;11.302;2024-03-08T10:45:35;9.63;;;8.15;;
40314;SDS011;26021;45.640;11.302;2024-03-08T10:48:15;9.45;;;8.07;;
40314;SDS011;26021;45.640;11.302;2024-03-08T10:51:02;11.88;;;9.27;;
40314;SDS011;26021;45.640;11.302;2024-03-08T10:53:28;11.73;;;9.07;;
40314;SDS011;26021;45.640;11.302;2024-03-08T10:55:56;12.95;;;9.80;;
40314;SDS011;26021;45.640;11.302;2024-03-08T10:58:22;13.15;;;9.07;;
40314;SDS011;26021;45.640;11.302;2024-03-08T11:00:55;9.43;;;8.05;;
40314;SDS011;26021;45.640;11.302;2024-03-08T11:06:05;8.20;;;7.30;;
40314;SDS011;26021;45.640;11.302;2024-03-08T11:08:40;10.68;;;8.13;;
40314;SDS011;26021;45.640;11.302;2024-03-08T11:11:05;9.38;;;7.57;;
40314;SDS011;26021;45.640;11.302;2024-03-08T11:13:48;9.88;;;6.97;;
40314;SDS011;26021;45.640;11.302;2024-03-08T11:18:56;8.38;;;7.57;;
40314;SDS011;26021;45.640;11.302;2024-03-08T11:21:30;8.38;;;7.15;;
40314;SDS011;26021;45.640;11.302;2024-03-08T11:24:01;7.80;;;6.78;;
40314;SDS011;26021;45.640;11.302;2024-03-08T11:26:38;9.43;;;7.30;;
40314;SDS011;26021;45.640;11.302;2024-03-08T11:32:03;13.75;;;11.88;;
40314;SDS011;26021;45.640;11.302;2024-03-08T11:34:30;9.55;;;7.10;;
40314;SDS011;26021;45.640;11.302;2024-03-08T11:36:55;10.65;;;8.30;;
40314;SDS011;26021;45.640;11.302;2024-03-08T11:39:21;10.35;;;8.07;;
40314;SDS011;26021;45.640;11.302;2024-03-08T11:41:49;10.45;;;8.27;;
40314;SDS011;26021;45.640;11.302;2024-03-08T11:44:14;8.57;;;7.65;;
40314;SDS011;26021;45.640;11.302;2024-03-08T11:46:42;11.48;;;8.32;;
40314;SDS011;26021;45.640;11.302;2024-03-08T11:49:11;10.73;;;8.63;;
40314;SDS011;26021;45.640;11.302;2024-03-08T11:51:37;10.77;;;9.07;;
40314;SDS011;26021;45.640;11.302;2024-03-08T11:54:03;11.75;;;9.55;;
40314;SDS011;26021;45.640;11.302;2024-03-08T11:56:28;10.77;;;9.52;;
40314;SDS011;26021;45.640;11.302;2024-03-08T11:58:55;11.45;;;9.65;;
40314;SDS011;26021;45.640;11.302;2024-03-08T12:01:22;12.65;;;9.27;;
40314;SDS011;26021;45.640;11.302;2024-03-08T12:03:55;12.18;;;9.63;;
40314;SDS011;26021;45.640;11.302;2024-03-08T12:06:27;12.15;;;8.85;;
40314;SDS011;26021;45.640;11.302;2024-03-08T12:09:08;11.80;;;9.15;;
40314;SDS011;26021;45.640;11.302;2024-03-08T12:11:35;11.32;;;8.75;;
40314;SDS011;26021;45.640;11.302;2024-03-08T12:14:01;10.65;;;8.90;;
40314;SDS011;26021;45.640;11.302;2024-03-08T12:16:27;10.10;;;9.00;;
40314;SDS011;26021;45.640;11.302;2024-03-08T12:18:53;13.90;;;9.43;;
40314;SDS011;26021;45.640;11.302;2024-03-08T12:21:19;11.32;;;9.05;;
40314;SDS011;26021;45.640;11.302;2024-03-08T12:24:01;11.63;;;9.85;;
40314;SDS011;26021;45.640;11.302;2024-03-08T12:26:34;13.20;;;9.95;;
40314;SDS011;26021;45.640;11.302;2024-03-08T12:29:17;10.95;;;8.65;;
40314;SDS011;26021;45.640;11.302;2024-03-08T12:31:52;12.40;;;9.68;;
40314;SDS011;26021;45.640;11.302;2024-03-08T12:34:23;11.85;;;9.68;;
40314;SDS011;26021;45.640;11.302;2024-03-08T12:36:51;12.52;;;9.60;;
40314;SDS011;26021;45.640;11.302;2024-03-08T12:39:18;12.00;;;10.15;;
40314;SDS011;26021;45.640;11.302;2024-03-08T12:41:51;12.85;;;9.95;;
40314;SDS011;26021;45.640;11.302;2024-03-08T12:44:17;12.35;;;10.50;;
40314;SDS011;26021;45.640;11.302;2024-03-08T12:46:46;12.98;;;10.48;;
40314;SDS011;26021;45.640;11.302;2024-03-08T12:49:13;12.50;;;10.88;;
40314;SDS011;26021;45.640;11.302;2024-03-08T12:51:42;12.00;;;10.25;;
40314;SDS011;26021;45.640;11.302;2024-03-08T12:54:08;14.82;;;13.02;;
40314;SDS011;26021;45.640;11.302;2024-03-08T12:56:34;17.65;;;14.07;;
40314;SDS011;26021;45.640;11.302;2024-03-08T12:59:02;11.07;;;9.88;;
40314;SDS011;26021;45.640;11.302;2024-03-08T13:01:30;14.63;;;10.98;;
40314;SDS011;26021;45.640;11.302;2024-03-08T13:03:57;12.68;;;10.27;;
40314;SDS011;26021;45.640;11.302;2024-03-08T13:06:27;18.17;;;14.10;;
40314;SDS011;26021;45.640;11.302;2024-03-08T13:08:54;13.43;;;11.27;;
40314;SDS011;26021;45.640;11.302;2024-03-08T13:11:23;12.18;;;10.35;;
40314;SDS011;26021;45.640;11.302;2024-03-08T13:13:49;12.00;;;9.93;;
40314;SDS011;26021;45.640;11.302;2024-03-08T13:16:15;11.80;;;9.85;;
40314;SDS011;26021;45.640;11.302;2024-03-08T13:18:42;12.50;;;11.20;;
40314;SDS011;26021;45.640;11.302;2024-03-08T13:21:08;11.70;;;10.05;;
40314;SDS011;26021;45.640;11.302;2024-03-08T13:23:35;10.63;;;9.45;;
40314;SDS011;26021;45.640;11.302;2024-03-08T13:26:10;11.30;;;9.73;;
40314;SDS011;26021;45.640;11.302;2024-03-08T13:28:40;12.90;;;10.30;;
40314;SDS011;26021;45.640;11.302;2024-03-08T13:31:06;11.10;;;9.48;;
40314;SDS011;26021;45.640;11.302;2024-03-08T13:33:35;12.25;;;9.43;;
40314;SDS011;26021;45.640;11.302;2024-03-08T13:36:19;11.00;;;9.90;;
40314;SDS011;26021;45.640;11.302;2024-03-08T13:38:48;11.32;;;9.25;;
40314;SDS011;26021;45.640;11.302;2024-03-08T13:41:14;11.40;;;10.20;;
40314;SDS011;26021;45.640;11.302;2024-03-08T13:43:42;11.13;;;10.02;;
40314;SDS011;26021;45.640;11.302;2024-03-08T13:46:07;13.10;;;10.65;;
40314;SDS011;26021;45.640;11.302;2024-03-08T13:48:35;12.57;;;10.85;;
40314;SDS011;26021;45.640;11.302;2024-03-08T13:51:02;14.18;;;11.73;;
40314;SDS011;26021;45.640;11.302;2024-03-08T13:53:29;16.42;;;13.05;;
40314;SDS011;26021;45.640;11.302;2024-03-08T13:55:55;20.05;;;16.10;;
40314;SDS011;26021;45.640;11.302;2024-03-08T13:58:21;17.40;;;15.57;;
40314;SDS011;26021;45.640;11.302;2024-03-08T14:00:47;17.35;;;14.57;;
40314;SDS011;26021;45.640;11.302;2024-03-08T14:03:13;13.25;;;11.45;;
40314;SDS011;26021;45.640;11.302;2024-03-08T14:05:41;17.27;;;14.07;;
40314;SDS011;26021;45.640;11.302;2024-03-08T14:08:07;17.15;;;12.70;;
40314;SDS011;26021;45.640;11.302;2024-03-08T14:10:34;14.05;;;12.00;;
40314;SDS011;26021;45.640;11.302;2024-03-08T14:13:02;16.15;;;12.43;;
40314;SDS011;26021;45.640;11.302;2024-03-08T14:15:30;16.38;;;12.63;;
40314;SDS011;26021;45.640;11.302;2024-03-08T14:17:56;15.95;;;12.77;;
40314;SDS011;26021;45.640;11.302;2024-03-08T14:20:22;16.77;;;13.23;;
40314;SDS011;26021;45.640;11.302;2024-03-08T14:22:51;17.13;;;14.02;;
40314;SDS011;26021;45.640;11.302;2024-03-08T14:25:17;18.25;;;14.80;;
40314;SDS011;26021;45.640;11.302;2024-03-08T14:27:43;16.38;;;12.38;;
40314;SDS011;26021;45.640;11.302;2024-03-08T14:30:10;13.75;;;11.98;;
40314;SDS011;26021;45.640;11.302;2024-03-08T14:32:36;17.98;;;13.02;;
40314;SDS011;26021;45.640;11.302;2024-03-08T14:35:03;16.58;;;14.65;;